Time;durP1;ratioP1;P1;durP2;ratioP2;P2;SDS_P1;SDS_P2;PMS_P1;PMS_P2;Temp;Humidity;BMP_temperature;BMP_pressure;BME280_temperature;BME280_humidity;BME280_pressure;Samples;Min_cycle;Max_cycle;Signal;HPM_P1;HPM_P2
2023/10/07 00:01:24;;;;;;;;;2.25;1.75;;;;;-143.90;71.81;75015.09;4957340;28;102344;-74
2023/10/07 00:03:53;;;;;;;;;2.75;2.00;;;;;-143.90;71.35;75015.09;4972518;28;104205;-75
2023/10/07 00:06:25;;;;;;;;;3.00;1.75;;;;;-143.90;70.41;75008.91;4972245;28;104103;-74
2023/10/07 00:08:52;;;;;;;;;3.50;3.00;;;;;-143.90;70.46;75006.84;4966467;28;102284;-75
2023/10/07 00:11:19;;;;;;;;;2.00;2.00;;;;;-143.90;69.87;75006.84;4977881;28;102434;-74
2023/10/07 00:13:48;;;;;;;;;3.50;2.50;;;;;-143.90;70.75;75002.69;4978732;27;102411;-73
2023/10/07 00:16:17;;;;;;;;;1.50;1.50;;;;;-143.90;70.09;74994.44;4979009;28;103922;-74
2023/10/07 00:18:45;;;;;;;;;4.00;2.00;;;;;-143.90;69.73;74994.44;4976875;28;102215;-74
2023/10/07 00:21:23;;;;;;;;;1.50;1.00;;;;;-143.90;69.96;74994.44;4985153;28;102505;-73
2023/10/07 00:23:52;;;;;;;;;1.25;1.25;;;;;-143.90;70.08;74992.38;4975720;28;102461;-74
2023/10/07 00:26:19;;;;;;;;;2.75;2.25;;;;;-143.90;69.82;74990.28;4983254;28;104356;-75
2023/10/07 00:28:54;;;;;;;;;2.00;1.75;;;;;-143.90;69.40;74990.28;4975402;28;102218;-74
2023/10/07 00:31:27;;;;;;;;;2.25;2.00;;;;;-143.90;69.48;74984.09;4982492;28;102170;-74
2023/10/07 00:36:58;;;;;;;;;3.00;2.00;;;;;-143.90;69.60;74990.28;4908914;28;108595;-74
2023/10/07 00:39:31;;;;;;;;;2.50;2.00;;;;;-143.90;69.43;74988.22;4966986;28;101987;-74
2023/10/07 00:41:59;;;;;;;;;1.50;1.50;;;;;-143.90;68.52;74982.03;4975685;28;102011;-75
2023/10/07 00:44:35;;;;;;;;;1.25;1.00;;;;;-143.90;68.48;74982.03;4980862;28;101986;-74
2023/10/07 00:49:41;;;;;;;;;3.00;1.25;;;;;-143.90;68.87;74961.34;4982331;28;102453;-72
2023/10/07 00:52:29;;;;;;;;;5.25;2.00;;;;;-143.90;68.76;74959.28;4962286;28;102536;-73
2023/10/07 00:57:35;;;;;;;;;2.75;2.00;;;;;-143.90;68.81;74957.22;4971233;28;109349;-72
2023/10/07 01:03:06;;;;;;;;;2.25;2.00;;;;;-143.90;68.70;74959.28;4969464;28;102393;-72
2023/10/07 01:05:35;;;;;;;;;2.50;2.50;;;;;-143.90;68.19;74951.00;4981185;28;108010;-74
2023/10/07 01:08:06;;;;;;;;;3.00;2.00;;;;;-143.90;69.10;74957.22;4976607;28;102976;-72
2023/10/07 01:10:38;;;;;;;;;2.25;2.00;;;;;-143.90;68.83;74951.00;4978871;28;103940;-72
2023/10/07 01:13:24;;;;;;;;;2.00;2.00;;;;;-143.90;69.26;74961.34;4962722;28;102174;-73
2023/10/07 01:15:53;;;;;;;;;3.00;2.50;;;;;-143.90;68.95;74948.94;4982658;28;102531;-72
2023/10/07 01:18:21;;;;;;;;;5.00;4.00;;;;;-143.90;69.05;74948.94;4970628;28;104630;-73
2023/10/07 01:23:19;;;;;;;;;3.75;2.75;;;;;-143.90;68.81;74946.88;4967139;28;102399;-74
2023/10/07 01:25:50;;;;;;;;;4.00;3.00;;;;;-143.90;69.04;74948.94;4978925;28;102538;-73
2023/10/07 01:28:17;;;;;;;;;4.50;3.00;;;;;-143.90;69.53;74940.69;4973283;28;104450;-74
2023/10/07 01:31:07;;;;;;;;;5.00;2.25;;;;;-143.90;68.96;74938.59;4962711;28;103620;-76
2023/10/07 01:33:45;;;;;;;;;2.50;2.50;;;;;-143.90;69.07;74928.28;4972946;28;102504;-76
2023/10/07 01:36:19;;;;;;;;;2.00;1.25;;;;;-143.90;68.73;74917.94;4972213;28;102338;-76
2023/10/07 01:38:52;;;;;;;;;4.75;3.25;;;;;-143.90;68.78;74924.13;4970704;28;104186;-76
2023/10/07 01:41:20;;;;;;;;;2.00;2.00;;;;;-143.90;69.03;74917.94;4967327;28;101937;-72
2023/10/07 01:43:56;;;;;;;;;3.50;3.50;;;;;-143.90;68.25;74924.13;4974368;28;102183;-73
2023/10/07 01:46:27;;;;;;;;;2.00;2.00;;;;;-143.90;68.83;74920.00;4974413;28;102367;-74
2023/10/07 01:48:57;;;;;;;;;3.00;2.00;;;;;-143.90;68.47;74922.06;4976714;28;103979;-72
2023/10/07 01:51:28;;;;;;;;;3.00;2.00;;;;;-143.90;68.83;74920.00;4973292;28;102237;-74
2023/10/07 01:53:56;;;;;;;;;5.00;3.00;;;;;-143.90;68.91;74924.13;4975287;28;102335;-74
2023/10/07 01:56:26;;;;;;;;;4.00;3.00;;;;;-143.90;69.05;74930.34;4979756;28;102264;-73
2023/10/07 01:59:29;;;;;;;;;3.00;2.00;;;;;-143.90;69.23;74928.28;4966994;28;103903;-73
2023/10/07 02:01:51;;;;;;;;;3.00;2.50;;;;;-143.90;69.01;74940.69;4976622;28;102253;-73
2023/10/07 02:04:20;;;;;;;;;2.50;2.50;;;;;-143.90;69.47;74938.59;4964952;28;102221;-73
2023/10/07 02:06:54;;;;;;;;;2.50;2.50;;;;;-143.90;69.11;74924.13;4976003;28;102373;-73
2023/10/07 02:09:29;;;;;;;;;1.25;1.25;;;;;-143.90;69.77;74924.13;4971351;28;104204;-72
2023/10/07 02:12:08;;;;;;;;;4.00;3.00;;;;;-143.90;69.99;74920.00;4972970;28;102207;-72
2023/10/07 02:14:35;;;;;;;;;2.75;2.25;;;;;-143.90;70.32;74928.28;4971856;28;101823;-73
2023/10/07 02:17:03;;;;;;;;;1.75;1.00;;;;;-143.90;70.06;74928.28;4980167;28;101968;-74
2023/10/07 02:19:32;;;;;;;;;2.00;2.00;;;;;-143.90;70.26;74922.06;4978133;28;108708;-72
2023/10/07 02:22:07;;;;;;;;;4.00;3.00;;;;;-143.90;69.33;74928.28;4960549;28;102461;-73
2023/10/07 02:24:35;;;;;;;;;3.00;3.00;;;;;-143.90;70.30;74922.06;4964211;28;101971;-73
2023/10/07 02:27:19;;;;;;;;;3.50;2.00;;;;;-143.90;69.85;74924.13;4965799;28;102341;-72
2023/10/07 02:29:57;;;;;;;;;4.00;3.50;;;;;-143.90;70.30;74924.13;4976694;28;108737;-73
2023/10/07 02:32:24;;;;;;;;;2.00;2.00;;;;;-143.90;70.30;74911.72;4965979;28;102464;-72
2023/10/07 02:34:55;;;;;;;;;4.00;2.25;;;;;-143.90;70.83;74915.88;4980293;28;102490;-75
2023/10/07 02:37:31;;;;;;;;;2.00;2.00;;;;;-143.90;70.80;74915.88;4969669;28;102255;-73
2023/10/07 02:40:16;;;;;;;;;2.50;2.50;;;;;-143.90;70.85;74909.66;4967979;28;103926;-73
2023/10/07 02:42:46;;;;;;;;;4.00;3.00;;;;;-143.90;71.48;74915.88;4971292;28;102276;-75
2023/10/07 02:47:47;;;;;;;;;4.50;3.00;;;;;-143.90;70.73;74899.34;4976626;28;102795;-73
2023/10/07 02:50:15;;;;;;;;;3.50;2.00;;;;;-143.90;70.33;74907.59;4951363;28;104133;-73
2023/10/07 02:52:46;;;;;;;;;2.50;2.50;;;;;-143.90;70.41;74899.34;4974489;28;102410;-74
2023/10/07 02:57:47;;;;;;;;;3.75;2.00;;;;;-143.90;70.96;74895.19;4979146;28;106003;-73
2023/10/07 03:03:20;;;;;;;;;4.25;2.50;;;;;-143.90;70.73;74903.47;4969333;28;102502;-72
2023/10/07 03:05:57;;;;;;;;;2.00;2.00;;;;;-143.90;71.01;74905.53;4960652;28;102316;-74
2023/10/07 03:08:40;;;;;;;;;2.25;2.25;;;;;-143.90;71.60;74903.47;4970121;28;103694;-72
2023/10/07 03:11:11;;;;;;;;;2.75;2.75;;;;;-143.90;70.96;74907.59;4957617;28;109051;-72
2023/10/07 03:13:45;;;;;;;;;3.00;3.00;;;;;-143.90;71.62;74907.59;4976896;28;103283;-73
2023/10/07 03:24:10;;;;;;;;;3.25;2.50;;;;;-143.90;71.73;74922.06;4969195;28;101943;-73
2023/10/07 03:26:40;;;;;;;;;1.50;1.25;;;;;-143.90;71.55;74926.22;4968718;28;101885;-73
2023/10/07 03:29:08;;;;;;;;;4.25;4.00;;;;;-143.90;72.12;74928.28;4969977;28;102024;-72
2023/10/07 03:31:47;;;;;;;;;4.00;3.00;;;;;-143.90;71.90;74926.22;4976600;28;103829;-73
2023/10/07 03:34:14;;;;;;;;;3.00;2.00;;;;;-143.90;71.76;74915.88;4973202;28;101998;-73
2023/10/07 03:36:45;;;;;;;;;3.00;3.00;;;;;-143.90;71.71;74907.59;4965586;28;101988;-73
2023/10/07 03:41:52;;;;;;;;;2.00;2.00;;;;;-143.90;71.76;74903.47;4976010;28;104369;-72
2023/10/07 03:44:20;;;;;;;;;2.00;2.00;;;;;-143.90;71.42;74911.72;4968793;28;102902;-73
2023/10/07 03:46:49;;;;;;;;;4.50;4.00;;;;;-143.90;71.40;74907.59;4974364;28;102035;-73
2023/10/07 03:49:16;;;;;;;;;4.00;3.50;;;;;-143.90;71.54;74909.66;4967518;28;102008;-74
2023/10/07 03:51:45;;;;;;;;;3.00;3.00;;;;;-143.90;71.18;74903.47;4973285;28;104143;-73
2023/10/07 03:54:15;;;;;;;;;4.50;3.00;;;;;-143.90;71.58;74903.47;4972876;28;101852;-73
2023/10/07 03:56:42;;;;;;;;;3.25;3.00;;;;;-143.90;71.38;74899.34;4970571;28;102408;-74
2023/10/07 03:59:09;;;;;;;;;6.00;4.25;;;;;-143.90;71.69;74897.25;4972551;28;101963;-72
2023/10/07 04:01:42;;;;;;;;;5.25;4.50;;;;;-143.90;70.68;74895.19;4968309;28;103846;-73
2023/10/07 04:04:12;;;;;;;;;4.00;3.75;;;;;-143.90;71.78;74891.06;4968641;28;102737;-74
2023/10/07 04:06:40;;;;;;;;;5.75;4.00;;;;;-143.90;71.90;74893.13;4965865;28;102400;-73
2023/10/07 04:09:07;;;;;;;;;3.50;2.75;;;;;-143.90;71.89;74895.19;4977916;28;102488;-72
2023/10/07 04:11:39;;;;;;;;;3.25;3.00;;;;;-143.90;71.93;74891.06;4976693;28;103796;-73
2023/10/07 04:14:27;;;;;;;;;6.00;4.75;;;;;-143.90;71.82;74882.78;4968966;28;103978;-72
2023/10/07 04:17:11;;;;;;;;;3.50;3.00;;;;;-143.90;72.25;74889.00;4959663;28;103076;-74
2023/10/07 04:19:42;;;;;;;;;3.50;3.50;;;;;-143.90;72.46;74884.88;4971692;28;102615;-73
2023/10/07 04:22:09;;;;;;;;;5.50;3.00;;;;;-143.90;71.69;74886.94;4963891;28;104165;-72
2023/10/07 04:24:43;;;;;;;;;2.50;2.50;;;;;-143.90;71.58;74901.41;4966546;28;102025;-72
2023/10/07 04:27:19;;;;;;;;;5.00;4.25;;;;;-143.90;71.35;74891.06;4960274;28;104167;-71
2023/10/07 04:29:47;;;;;;;;;5.00;4.25;;;;;-143.90;72.28;74897.25;4972311;28;102712;-72
2023/10/07 04:32:20;;;;;;;;;4.00;3.75;;;;;-143.90;71.23;74897.25;4976511;28;103829;-74
2023/10/07 04:37:51;;;;;;;;;4.75;3.00;;;;;-143.90;71.69;74882.78;4977731;28;102232;-73
2023/10/07 04:45:37;;;;;;;;;3.50;3.00;;;;;-143.90;71.40;74874.53;4970409;28;103961;-73
2023/10/07 04:48:40;;;;;;;;;4.00;3.25;;;;;-143.90;71.69;74878.66;4978423;28;102788;-73
2023/10/07 04:51:12;;;;;;;;;3.00;2.25;;;;;-143.90;71.69;74878.66;4958154;28;102487;-73
2023/10/07 04:53:44;;;;;;;;;3.00;2.50;;;;;-143.90;71.55;74880.72;4959714;28;108570;-73
2023/10/07 04:56:20;;;;;;;;;2.00;2.00;;;;;-143.90;72.17;74876.59;4971731;28;102542;-73
2023/10/07 04:58:47;;;;;;;;;3.00;3.00;;;;;-143.90;71.64;74874.53;4971954;28;102026;-72
2023/10/07 05:04:04;;;;;;;;;2.75;2.50;;;;;-143.90;71.79;74868.31;4979947;28;102122;-72
2023/10/07 05:06:34;;;;;;;;;2.00;2.00;;;;;-143.90;72.31;74868.31;4967001;28;108833;-72
2023/10/07 05:09:18;;;;;;;;;3.50;3.50;;;;;-143.90;72.77;74878.66;4967596;28;102270;-72
2023/10/07 05:11:46;;;;;;;;;3.00;3.00;;;;;-143.90;71.78;74880.72;4975592;28;102167;-72
2023/10/07 05:14:22;;;;;;;;;3.50;3.00;;;;;-143.90;71.93;74878.66;4963838;27;102402;-72
2023/10/07 05:16:48;;;;;;;;;5.75;4.00;;;;;-143.90;72.32;74866.25;4974453;28;106278;-72
2023/10/07 05:19:27;;;;;;;;;3.00;3.00;;;;;-143.90;72.06;74870.38;4967549;28;102315;-72
2023/10/07 05:24:41;;;;;;;;;5.00;4.00;;;;;-143.90;72.24;74874.53;4970253;28;102483;-72
2023/10/07 05:27:07;;;;;;;;;4.00;4.00;;;;;-143.90;72.26;74874.53;4973780;28;103549;-74
2023/10/07 05:29:34;;;;;;;;;5.00;4.25;;;;;-143.90;72.48;74874.53;4974975;28;102835;-72
2023/10/07 05:32:00;;;;;;;;;5.00;4.00;;;;;-143.90;71.72;74872.47;4972487;28;102479;-74
2023/10/07 05:34:28;;;;;;;;;5.75;3.00;;;;;-143.90;71.54;74870.38;4967133;28;103852;-71
2023/10/07 05:37:04;;;;;;;;;3.50;3.50;;;;;-143.90;72.62;74864.19;4975523;28;103963;-73
2023/10/07 05:39:34;;;;;;;;;6.25;4.75;;;;;-143.90;71.52;74876.59;4968820;28;102519;-74
2023/10/07 05:42:01;;;;;;;;;4.75;3.75;;;;;-143.90;72.41;74866.25;4965695;28;102623;-72
2023/10/07 05:44:30;;;;;;;;;3.25;3.00;;;;;-143.90;72.09;74860.06;4976973;28;102126;-73
2023/10/07 05:46:59;;;;;;;;;5.25;4.50;;;;;-143.90;71.30;74858.00;4966740;28;104192;-75
2023/10/07 05:49:25;;;;;;;;;3.25;3.00;;;;;-143.90;71.82;74851.78;4976224;27;102428;-74
2023/10/07 05:51:53;;;;;;;;;4.50;4.25;;;;;-143.90;71.57;74851.78;4975255;28;104464;-74
2023/10/07 05:54:19;;;;;;;;;2.00;2.00;;;;;-143.90;71.17;74849.72;4980367;28;104290;-74
2023/10/07 05:56:49;;;;;;;;;6.75;6.00;;;;;-143.90;71.61;74853.84;4972160;28;103806;-72
2023/10/07 05:59:15;;;;;;;;;4.00;3.50;;;;;-143.90;72.86;74845.59;4972849;28;102487;-74
2023/10/07 06:01:43;;;;;;;;;5.75;5.75;;;;;-143.90;72.67;74843.53;4969432;28;102077;-74
2023/10/07 06:04:11;;;;;;;;;4.00;4.00;;;;;-143.90;71.84;74841.44;4960107;28;102116;-72
2023/10/07 06:06:42;;;;;;;;;4.25;3.75;;;;;-143.90;71.43;74845.59;4982519;28;104049;-76
2023/10/07 06:09:13;;;;;;;;;3.75;2.75;;;;;-143.90;72.09;74837.31;4963079;28;101966;-71
2023/10/07 06:11:42;;;;;;;;;2.75;2.75;;;;;-143.90;70.63;74839.38;4967123;28;102086;-73
2023/10/07 06:14:11;;;;;;;;;4.25;3.25;;;;;-143.90;72.65;74839.38;4967278;28;102287;-73
2023/10/07 06:16:39;;;;;;;;;2.00;1.50;;;;;-143.90;72.07;74833.19;4977081;28;104174;-73
2023/10/07 06:19:07;;;;;;;;;4.00;3.50;;;;;-143.90;72.07;74833.19;4976288;28;102388;-73
2023/10/07 06:21:34;;;;;;;;;5.00;4.00;;;;;-143.90;71.53;74837.31;4976704;28;104151;-73
2023/10/07 06:24:06;;;;;;;;;3.50;3.00;;;;;-143.90;71.64;74837.31;4966061;28;102404;-73
2023/10/07 06:26:36;;;;;;;;;4.00;3.00;;;;;-143.90;70.59;74839.38;4971790;28;108854;-73
2023/10/07 06:29:07;;;;;;;;;3.00;3.00;;;;;-143.90;71.62;74822.84;4974418;28;102425;-73
2023/10/07 06:31:34;;;;;;;;;4.75;3.00;;;;;-143.90;71.09;74835.25;4963658;28;102503;-73
2023/10/07 06:34:03;;;;;;;;;3.00;3.00;;;;;-143.90;72.54;74824.91;4972344;27;102920;-73
2023/10/07 06:36:31;;;;;;;;;3.25;2.50;;;;;-143.90;71.95;74829.03;4967408;28;104045;-73
2023/10/07 06:39:01;;;;;;;;;4.50;4.00;;;;;-143.90;71.28;74829.03;4975033;28;103650;-73
2023/10/07 06:41:32;;;;;;;;;5.00;4.00;;;;;-143.90;72.21;74833.19;4957618;28;102574;-73
2023/10/07 06:43:59;;;;;;;;;8.75;3.00;;;;;-143.90;71.30;74826.97;4967822;28;104454;-73
2023/10/07 06:46:29;;;;;;;;;5.75;5.00;;;;;-143.90;72.02;74824.91;4962193;28;103926;-73
2023/10/07 06:48:56;;;;;;;;;5.00;5.00;;;;;-143.90;71.51;74826.97;4964721;28;103628;-73
2023/10/07 06:51:24;;;;;;;;;5.50;4.50;;;;;-143.90;72.19;74814.56;4971817;28;102368;-73
2023/10/07 06:53:51;;;;;;;;;6.50;5.00;;;;;-143.90;72.34;74814.56;4958437;28;102396;-73
2023/10/07 06:56:21;;;;;;;;;4.50;3.50;;;;;-143.90;72.95;74800.09;4971151;28;104194;-72
2023/10/07 06:58:59;;;;;;;;;4.50;4.00;;;;;-143.90;71.13;74789.78;4968200;28;102398;-73
2023/10/07 07:04:11;;;;;;;;;4.25;4.00;;;;;-143.90;72.81;74771.16;4976486;28;103120;-72
2023/10/07 07:06:43;;;;;;;;;4.00;4.00;;;;;-143.90;72.02;74754.63;4969723;28;108465;-74
2023/10/07 07:11:59;;;;;;;;;6.50;4.50;;;;;-143.90;72.26;74754.63;4975894;28;102367;-75
2023/10/07 07:14:28;;;;;;;;;4.50;4.50;;;;;-143.90;71.77;74736.03;4964916;27;102431;-73
2023/10/07 07:16:56;;;;;;;;;4.00;3.00;;;;;-143.90;72.46;74721.56;4958202;28;104186;-72
2023/10/07 07:19:23;;;;;;;;;2.75;2.75;;;;;-143.90;72.03;74711.22;4967847;28;102338;-72
2023/10/07 07:21:50;;;;;;;;;4.00;3.50;;;;;-143.90;71.62;74705.00;4958160;28;101939;-72
2023/10/07 07:24:23;;;;;;;;;2.00;2.00;;;;;-143.90;71.62;74700.88;4965537;28;104426;-72
2023/10/07 07:26:53;;;;;;;;;4.50;3.75;;;;;-143.90;70.97;74686.41;4965346;28;104022;-72
2023/10/07 07:29:23;;;;;;;;;5.50;3.75;;;;;-143.90;72.12;74676.06;4974966;28;102285;-72
2023/10/07 07:31:50;;;;;;;;;4.50;4.50;;;;;-143.90;70.44;74678.16;4967345;28;102271;-77
2023/10/07 07:34:25;;;;;;;;;4.25;4.00;;;;;-143.90;71.81;74684.34;4971170;28;102321;-75
2023/10/07 07:36:59;;;;;;;;;5.50;5.00;;;;;-143.90;70.54;74680.22;4965885;28;104011;-73
2023/10/07 07:39:30;;;;;;;;;4.75;4.75;;;;;-143.90;71.38;74676.06;4957571;28;102014;-73
2023/10/07 07:42:00;;;;;;;;;6.00;4.75;;;;;-143.90;71.46;74663.66;4939720;28;102483;-71
2023/10/07 07:44:33;;;;;;;;;5.50;5.00;;;;;-143.90;71.09;74651.28;4959207;28;102393;-74
2023/10/07 07:47:03;;;;;;;;;5.50;4.00;;;;;-143.90;71.70;74636.81;4952750;28;104231;-75
2023/10/07 07:49:32;;;;;;;;;4.25;4.00;;;;;-143.90;71.09;74634.72;4965128;28;102613;-73
2023/10/07 07:52:00;;;;;;;;;5.00;4.00;;;;;-143.90;69.97;74624.41;4958136;28;102221;-72
2023/10/07 07:54:29;;;;;;;;;3.75;3.00;;;;;-143.90;70.82;74620.25;4962849;28;102564;-73
2023/10/07 07:56:56;;;;;;;;;4.00;4.00;;;;;-143.90;70.59;74614.06;4973823;28;104167;-74
2023/10/07 07:59:22;;;;;;;;;4.00;3.00;;;;;-143.90;69.83;74609.94;4966246;28;102364;-75
2023/10/07 08:02:02;;;;;;;;;5.00;3.00;;;;;-143.90;70.11;74609.94;4964310;28;102058;-73
2023/10/07 08:04:38;;;;;;;;;3.00;3.00;;;;;-143.90;70.29;74595.47;4931574;28;102455;-73
2023/10/07 08:07:11;;;;;;;;;4.00;4.00;;;;;-143.90;70.59;74574.78;4863280;28;107778;-73
2023/10/07 08:09:41;;;;;;;;;3.25;3.25;;;;;-143.90;69.36;74564.44;4963715;28;103055;-73
2023/10/07 08:12:09;;;;;;;;;4.75;4.50;;;;;-143.90;68.63;74568.59;4957294;28;102363;-73
2023/10/07 08:14:37;;;;;;;;;5.25;5.00;;;;;-143.90;69.57;74556.19;4960992;28;102230;-74
2023/10/07 08:17:09;;;;;;;;;5.00;4.00;;;;;-143.90;68.09;74552.03;4955486;28;108847;-73
2023/10/07 08:19:38;;;;;;;;;4.25;4.25;;;;;-143.90;67.93;74560.31;4976547;28;102171;-75
2023/10/07 08:22:13;;;;;;;;;4.25;4.00;;;;;-143.90;69.38;74545.84;4967644;28;103178;-75
2023/10/07 08:24:40;;;;;;;;;6.25;5.50;;;;;-143.90;69.72;74539.66;4969013;28;102039;-73
2023/10/07 08:27:43;;;;;;;;;3.50;3.00;;;;;-143.90;70.37;74539.66;4963824;28;103483;-73
2023/10/07 08:29:54;;;;;;;;;4.00;3.00;;;;;-143.90;69.02;74516.91;4967331;28;102268;-73
2023/10/07 08:32:42;;;;;;;;;5.33;4.67;;;;;-143.90;68.44;74523.09;4977500;28;102657;-72
2023/10/07 08:35:16;;;;;;;;;4.00;4.00;;;;;-143.90;68.49;74535.50;4962280;28;102741;-74
2023/10/07 08:37:47;;;;;;;;;4.00;4.00;;;;;-143.90;68.79;74525.19;4954830;28;108285;-73
2023/10/07 08:40:29;;;;;;;;;3.67;3.33;;;;;-143.90;69.43;74504.50;4973361;28;101967;-73
2023/10/07 08:42:58;;;;;;;;;6.00;6.00;;;;;-143.90;69.99;74473.50;4981650;28;102431;-72
2023/10/07 08:45:30;;;;;;;;;3.00;3.00;;;;;-143.90;67.73;74459.03;4949994;28;102304;-72
2023/10/07 08:48:08;;;;;;;;;6.00;4.00;;;;;-143.90;68.73;74446.63;4962407;28;103987;-72
2023/10/07 08:51:02;;;;;;;;;5.00;5.00;;;;;-143.90;66.74;74450.75;4925271;28;102443;-74
2023/10/07 08:53:31;;;;;;;;;6.33;5.00;;;;;-143.90;67.70;74444.56;4953954;28;102236;-72
2023/10/07 08:56:00;;;;;;;;;5.50;4.00;;;;;-143.90;68.26;74436.28;4956022;28;102562;-72
2023/10/07 08:58:31;;;;;;;;;6.00;4.00;;;;;-143.90;67.16;74430.09;4964786;28;104038;-75
2023/10/07 09:00:58;;;;;;;;;4.67;3.67;;;;;-143.90;68.02;74428.03;4963163;28;101949;-73
2023/10/07 09:03:29;;;;;;;;;5.00;3.00;;;;;-143.90;66.31;74432.16;4973433;28;102213;-71
2023/10/07 09:06:06;;;;;;;;;7.67;4.67;;;;;-143.90;67.13;74436.28;4953996;28;102111;-71
2023/10/07 09:08:35;;;;;;;;;6.00;5.00;;;;;-143.90;66.72;74432.16;4970817;28;108672;-72
2023/10/07 09:11:08;;;;;;;;;3.33;3.33;;;;;-143.90;67.22;74415.63;4957798;28;102464;-72
2023/10/07 09:13:38;;;;;;;;;5.33;4.00;;;;;-143.90;67.71;74415.63;4963964;28;102019;-73
2023/10/07 09:16:07;;;;;;;;;3.33;2.67;;;;;-143.90;66.90;74401.16;4979684;28;102079;-71
2023/10/07 09:18:41;;;;;;;;;2.00;2.00;;;;;-143.90;66.81;74388.75;4953462;28;105134;-71
2023/10/07 09:21:22;;;;;;;;;3.00;3.00;;;;;-143.90;65.72;74386.69;4956317;28;102058;-73
2023/10/07 09:23:59;;;;;;;;;3.00;3.00;;;;;-143.90;66.52;74345.34;4966384;28;102175;-71
2023/10/07 09:26:37;;;;;;;;;4.33;4.33;;;;;-143.90;64.69;74341.22;4968316;28;102385;-74
2023/10/07 09:29:21;;;;;;;;;6.00;5.00;;;;;-143.90;65.47;74332.94;4968836;28;103927;-72
2023/10/07 09:32:05;;;;;;;;;5.33;4.67;;;;;-143.90;64.64;74322.59;4956167;28;102915;-72
2023/10/07 09:34:44;;;;;;;;;5.00;4.00;;;;;-143.90;64.71;74314.34;4963242;28;102832;-77
2023/10/07 09:37:26;;;;;;;;;5.33;5.00;;;;;-143.90;63.56;74301.94;4975896;28;102020;-73
2023/10/07 09:39:54;;;;;;;;;6.00;4.00;;;;;-143.90;63.93;74279.22;4967234;28;104617;-73
2023/10/07 09:42:27;;;;;;;;;4.00;3.00;;;;;-143.90;62.67;74275.06;4954423;28;105639;-73
2023/10/07 09:45:17;;;;;;;;;4.33;3.00;;;;;-143.90;62.87;74283.34;4955466;28;103230;-76
2023/10/07 09:47:44;;;;;;;;;4.33;3.00;;;;;-143.90;62.45;74277.13;4961296;28;102694;-72
2023/10/07 09:53:02;;;;;;;;;4.00;4.00;;;;;-143.90;63.46;74266.81;4973905;28;102457;-77
2023/10/07 09:56:04;;;;;;;;;5.00;5.00;;;;;-143.90;62.55;74273.00;4947340;28;102693;-73
2023/10/07 09:58:41;;;;;;;;;4.67;4.00;;;;;-143.90;62.60;74260.59;4927054;28;102630;-72
2023/10/07 10:01:38;;;;;;;;;4.33;3.00;;;;;-143.90;62.98;74260.59;4957991;28;108745;-71
2023/10/07 10:04:33;;;;;;;;;4.00;4.00;;;;;-143.90;63.58;74270.94;4933729;28;102499;-75
2023/10/07 10:07:39;;;;;;;;;4.67;4.33;;;;;-143.90;62.33;74283.34;4957795;28;103056;-73
2023/10/07 10:10:15;;;;;;;;;4.00;4.00;;;;;-143.90;63.84;74301.94;4967254;28;101990;-75
2023/10/07 10:18:15;;;;;;;;;4.00;4.00;;;;;-143.90;63.85;74289.53;4933710;28;101867;-72
2023/10/07 10:20:42;;;;;;;;;5.00;5.00;;;;;-143.90;63.81;74277.13;4970738;28;103598;-76
2023/10/07 10:23:19;;;;;;;;;4.00;4.00;;;;;-143.90;62.55;74266.81;4975321;28;109520;-75
2023/10/07 10:25:52;;;;;;;;;3.67;3.00;;;;;-143.90;61.04;74256.47;4964135;28;101957;-73
2023/10/07 10:28:29;;;;;;;;;6.00;5.00;;;;;-143.90;60.80;74248.19;4975196;28;102344;-75
2023/10/07 10:30:55;;;;;;;;;6.00;5.00;;;;;-143.90;62.12;74246.13;4970296;28;102377;-75
2023/10/07 10:33:25;;;;;;;;;5.00;4.00;;;;;-143.90;62.54;74229.59;4957925;28;104273;-73
2023/10/07 10:36:00;;;;;;;;;5.00;4.00;;;;;-143.90;62.30;74208.94;4966909;28;103634;-72
2023/10/07 10:38:37;;;;;;;;;3.00;2.67;;;;;-143.90;62.14;74208.94;4964572;28;104180;-74
2023/10/07 10:41:05;;;;;;;;;5.33;4.67;;;;;-143.90;63.51;74192.41;4946228;28;102106;-75
2023/10/07 10:43:32;;;;;;;;;4.33;4.00;;;;;-143.90;59.81;74196.53;4949019;28;103302;-73
2023/10/07 10:46:05;;;;;;;;;4.67;4.33;;;;;-143.90;61.19;74192.41;4965382;28;102459;-74
2023/10/07 10:48:37;;;;;;;;;6.33;6.00;;;;;-143.90;61.58;74182.06;4973196;28;102151;-74
2023/10/07 10:51:05;;;;;;;;;6.00;5.33;;;;;-143.90;62.18;74167.59;4970384;28;102124;-74
2023/10/07 10:53:33;;;;;;;;;3.00;3.00;;;;;-143.90;60.56;74163.47;4965725;28;104322;-75
2023/10/07 10:56:03;;;;;;;;;6.00;6.00;;;;;-143.90;60.37;74163.47;4979371;28;102499;-75
2023/10/07 10:58:30;;;;;;;;;7.00;5.33;;;;;-143.90;59.67;74180.00;4969327;28;102087;-77
2023/10/07 11:00:57;;;;;;;;;4.00;4.00;;;;;-143.90;60.43;74169.66;4978037;28;102112;-74
2023/10/07 11:03:23;;;;;;;;;6.00;5.33;;;;;-143.90;60.80;74161.38;4962328;28;104003;-74
2023/10/07 11:05:56;;;;;;;;;5.00;4.33;;;;;-143.90;60.11;74161.38;4960088;28;102505;-73
2023/10/07 11:08:25;;;;;;;;;3.00;3.00;;;;;-143.90;60.83;74149.00;4972705;28;102314;-74
2023/10/07 11:10:53;;;;;;;;;3.00;3.00;;;;;-143.90;62.04;74140.72;4953168;28;102264;-77
2023/10/07 11:13:20;;;;;;;;;5.33;4.00;;;;;-143.90;61.38;74134.53;4959624;28;103994;-74
2023/10/07 11:15:58;;;;;;;;;6.00;4.00;;;;;-143.90;60.72;74132.44;4966867;28;102404;-73
2023/10/07 11:18:30;;;;;;;;;4.00;4.00;;;;;-143.90;59.64;74130.38;4963215;28;101997;-73
2023/10/07 11:20:57;;;;;;;;;1.00;1.00;;;;;-143.90;57.79;74142.78;4965019;28;102612;-73
2023/10/07 11:23:27;;;;;;;;;5.00;3.67;;;;;-143.90;57.31;74142.78;4971182;28;104428;-74
2023/10/07 11:25:56;;;;;;;;;7.00;6.00;;;;;-143.90;57.83;74136.59;4954054;28;102123;-72
2023/10/07 11:28:23;;;;;;;;;8.00;4.33;;;;;-143.90;57.02;74136.59;4976748;28;101917;-72
2023/10/07 11:30:51;;;;;;;;;2.00;1.67;;;;;-143.90;57.20;74136.59;4968081;28;102015;-73
2023/10/07 11:33:19;;;;;;;;;8.00;6.00;;;;;-143.90;55.95;74134.53;4949853;28;103860;-74
2023/10/07 11:35:57;;;;;;;;;5.00;5.00;;;;;-143.90;55.38;74113.84;4940201;28;102235;-73
2023/10/07 11:38:25;;;;;;;;;4.00;4.00;;;;;-143.90;56.41;74089.06;4960215;28;101934;-72
2023/10/07 11:40:52;;;;;;;;;5.00;4.00;;;;;-143.90;55.89;74076.66;4973266;28;107499;-73
2023/10/07 11:43:19;;;;;;;;;7.00;6.00;;;;;-143.90;54.93;74080.78;4958555;28;104602;-74
2023/10/07 11:45:47;;;;;;;;;6.00;6.00;;;;;-143.90;54.89;74062.19;4938557;28;102594;-74
2023/10/07 11:48:14;;;;;;;;;4.67;4.67;;;;;-143.90;55.25;74051.84;4957028;28;102414;-75
2023/10/07 11:50:41;;;;;;;;;5.67;5.00;;;;;-143.90;55.82;74039.44;4963200;28;102530;-72
2023/10/07 11:53:08;;;;;;;;;5.33;5.00;;;;;-143.90;54.47;74027.03;4915224;28;105380;-73
2023/10/07 11:55:36;;;;;;;;;5.00;5.00;;;;;-143.90;55.33;74020.84;4965504;28;102511;-72
2023/10/07 11:58:07;;;;;;;;;5.00;4.00;;;;;-143.90;54.54;74014.66;4958308;28;102577;-72
2023/10/07 12:00:35;;;;;;;;;6.33;6.00;;;;;-143.90;54.67;74004.31;4954795;28;102191;-72
2023/10/07 12:03:06;;;;;;;;;7.33;6.33;;;;;-143.90;53.49;74012.56;4960967;28;104182;-76
2023/10/07 12:05:39;;;;;;;;;7.33;6.67;;;;;-143.90;54.82;74022.91;4958604;28;102545;-75
2023/10/07 12:08:11;;;;;;;;;7.00;6.00;;;;;-143.90;53.71;74037.38;4963480;28;103076;-75
2023/10/07 12:10:39;;;;;;;;;6.00;5.33;;;;;-143.90;54.39;74035.31;4959006;28;103363;-74
2023/10/07 12:13:14;;;;;;;;;9.00;8.33;;;;;-143.90;53.99;74043.59;4979525;28;104345;-75
2023/10/07 12:15:42;;;;;;;;;8.67;6.00;;;;;-143.90;54.36;74055.97;4960255;28;102305;-74
2023/10/07 12:18:19;;;;;;;;;5.67;5.67;;;;;-143.90;54.85;74060.13;4960323;28;102025;-71
2023/10/07 12:20:46;;;;;;;;;6.00;6.00;;;;;-143.90;54.67;74068.38;4958658;28;102440;-75
2023/10/07 12:23:12;;;;;;;;;6.00;4.33;;;;;-143.90;54.50;74072.50;4956952;28;104091;-75
2023/10/07 12:25:41;;;;;;;;;5.33;4.00;;;;;-143.90;54.88;74074.59;4947873;28;101994;-73
2023/10/07 12:28:08;;;;;;;;;4.00;4.00;;;;;-143.90;55.68;74070.44;4954816;28;101882;-72
2023/10/07 12:30:37;;;;;;;;;6.00;6.00;;;;;-143.90;55.48;74072.50;4967410;28;102037;-71